Time;durP1;ratioP1;P1;durP2;ratioP2;P2;SDS_P1;SDS_P2;PMS_P1;PMS_P2;Temp;Humidity;BMP_temperature;BMP_pressure;BME280_temperature;BME280_humidity;BME280_pressure;Samples;Min_cycle;Max_cycle;Signal;HPM_P1;HPM_P2
2023/10/01 00:01:03;;;;;;;12.97;10.80;;;19.40;83.10;;;;;;5039616;28;20245;-61
2023/10/01 00:03:30;;;;;;;19.57;13.03;;;19.40;82.80;;;;;;5035335;28;20197;-62
2023/10/01 00:05:58;;;;;;;14.70;11.90;;;19.40;82.70;;;;;;5037672;28;20207;-62
2023/10/01 00:08:25;;;;;;;14.97;10.47;;;19.30;82.60;;;;;;5038378;28;20217;-62
2023/10/01 00:10:52;;;;;;;17.10;10.60;;;19.30;82.70;;;;;;5043022;28;20217;-62
2023/10/01 00:13:20;;;;;;;14.73;11.60;;;19.20;82.90;;;;;;5039351;28;20205;-61
2023/10/01 00:15:49;;;;;;;14.77;10.93;;;19.10;83.20;;;;;;5041027;28;20198;-62
2023/10/01 00:18:16;;;;;;;20.03;11.03;;;19.10;83.30;;;;;;5039588;28;20212;-62
2023/10/01 00:20:43;;;;;;;12.60;10.47;;;19.00;83.50;;;;;;5034512;28;20616;-62
2023/10/01 00:23:11;;;;;;;15.20;11.67;;;19.00;83.70;;;;;;5037495;28;20199;-62
2023/10/01 00:25:38;;;;;;;16.70;12.90;;;18.90;83.90;;;;;;5040179;28;20258;-62
2023/10/01 00:28:07;;;;;;;15.97;11.83;;;18.90;84.10;;;;;;5040884;28;20239;-62
2023/10/01 00:30:36;;;;;;;19.57;13.37;;;18.90;84.20;;;;;;5039575;28;20575;-62
2023/10/01 00:33:06;;;;;;;17.10;14.13;;;18.90;84.30;;;;;;5044499;28;21131;-62
2023/10/01 00:35:37;;;;;;;16.53;12.70;;;18.90;84.40;;;;;;5037173;28;20205;-61
2023/10/01 00:38:04;;;;;;;17.90;13.77;;;18.80;84.50;;;;;;5044545;28;20208;-62
2023/10/01 00:40:31;;;;;;;18.13;13.83;;;18.80;84.70;;;;;;5041845;28;20223;-61
2023/10/01 00:42:58;;;;;;;16.77;12.77;;;18.80;84.80;;;;;;5035648;28;20320;-62
2023/10/01 00:45:25;;;;;;;15.30;12.63;;;18.80;84.90;;;;;;5044538;28;20651;-62
2023/10/01 00:47:53;;;;;;;19.63;13.27;;;18.80;85.00;;;;;;5036755;28;20285;-62
2023/10/01 00:50:21;;;;;;;14.67;12.90;;;18.80;85.10;;;;;;5032940;28;20213;-62
2023/10/01 00:52:51;;;;;;;14.13;12.70;;;18.80;85.10;;;;;;5042071;28;20198;-61
2023/10/01 00:55:20;;;;;;;16.97;13.10;;;18.70;85.20;;;;;;5033811;28;20209;-62
2023/10/01 00:57:49;;;;;;;19.23;12.47;;;18.70;85.20;;;;;;5038364;28;20212;-61
2023/10/01 01:00:20;;;;;;;18.93;12.57;;;18.60;85.10;;;;;;5032884;28;20558;-61
2023/10/01 01:02:58;;;;;;;17.17;13.67;;;18.60;85.10;;;;;;5050284;28;20227;-61
2023/10/01 01:05:34;;;;;;;17.67;13.57;;;18.50;85.10;;;;;;5039305;28;20200;-61
2023/10/01 01:08:21;;;;;;;18.20;14.53;;;18.50;85.30;;;;;;5032930;28;20274;-62
2023/10/01 01:10:51;;;;;;;17.43;12.83;;;18.40;85.50;;;;;;5039020;28;20545;-62
2023/10/01 01:13:18;;;;;;;16.37;14.00;;;18.40;85.90;;;;;;5042185;28;20204;-62
2023/10/01 01:15:48;;;;;;;14.70;13.20;;;18.30;86.20;;;;;;5036981;28;20202;-62
2023/10/01 01:18:20;;;;;;;16.73;13.90;;;18.30;86.40;;;;;;5037841;28;20659;-61
2023/10/01 01:20:49;;;;;;;20.93;14.00;;;18.30;86.70;;;;;;5034542;28;20199;-61
2023/10/01 01:23:18;;;;;;;18.17;14.67;;;18.20;86.80;;;;;;5035291;28;20630;-61
2023/10/01 01:25:46;;;;;;;15.83;14.27;;;18.20;86.90;;;;;;5039255;28;20240;-61
2023/10/01 01:28:15;;;;;;;19.07;14.40;;;18.20;87.00;;;;;;5036042;28;20201;-61
2023/10/01 01:30:43;;;;;;;15.07;13.43;;;18.20;87.10;;;;;;5038861;28;20616;-61
2023/10/01 01:33:16;;;;;;;18.43;14.23;;;18.20;87.10;;;;;;5039193;28;20222;-62
2023/10/01 01:35:45;;;;;;;17.50;14.33;;;18.20;87.00;;;;;;5035043;28;20223;-62
2023/10/01 01:38:11;;;;;;;17.27;15.40;;;18.20;87.10;;;;;;5038369;28;20581;-61
2023/10/01 01:40:40;;;;;;;20.37;14.13;;;18.20;87.20;;;;;;5041092;28;20212;-62
2023/10/01 01:46:08;;;;;;;17.47;14.30;;;18.10;87.30;;;;;;5028402;28;20680;-61
2023/10/01 01:48:40;;;;;;;18.77;14.07;;;18.10;87.30;;;;;;5035090;28;20620;-61
2023/10/01 01:51:08;;;;;;;14.13;12.73;;;18.10;87.30;;;;;;5036000;28;20693;-61
2023/10/01 01:53:36;;;;;;;20.77;13.60;;;18.10;87.40;;;;;;5041312;28;20287;-62
2023/10/01 01:56:13;;;;;;;15.90;13.83;;;18.10;87.50;;;;;;5036285;28;20210;-61
2023/10/01 01:58:43;;;;;;;17.63;14.43;;;18.10;87.70;;;;;;5044573;28;20196;-62
2023/10/01 02:03:46;;;;;;;16.50;13.10;;;18.00;87.70;;;;;;5038498;28;20289;-62
2023/10/01 02:06:26;;;;;;;16.97;14.70;;;18.00;87.70;;;;;;5038633;28;20204;-62
2023/10/01 02:09:00;;;;;;;16.30;13.67;;;18.00;87.70;;;;;;5038312;28;20213;-61
2023/10/01 02:11:32;;;;;;;16.83;13.93;;;17.90;88.20;;;;;;5052661;28;20205;-61
2023/10/01 02:14:03;;;;;;;21.20;13.47;;;17.90;87.60;;;;;;5044679;28;20238;-62
2023/10/01 02:16:37;;;;;;;19.90;13.93;;;17.90;87.80;;;;;;5039892;28;20202;-62
2023/10/01 02:19:21;;;;;;;16.30;13.43;;;17.90;87.70;;;;;;5036559;28;20196;-62
2023/10/01 02:21:52;;;;;;;18.43;13.87;;;17.90;87.60;;;;;;5040029;28;20775;-61
2023/10/01 02:24:37;;;;;;;17.47;13.50;;;17.90;87.80;;;;;;5035674;28;20243;-62
2023/10/01 02:27:05;;;;;;;15.63;13.37;;;17.90;88.00;;;;;;5039159;28;20189;-61
2023/10/01 02:29:45;;;;;;;21.20;12.93;;;17.90;88.10;;;;;;5047592;28;20194;-61
2023/10/01 02:32:14;;;;;;;20.47;13.67;;;17.80;88.10;;;;;;5042049;28;20270;-62
2023/10/01 02:34:43;;;;;;;19.93;14.27;;;17.90;88.10;;;;;;5036856;28;20541;-62
2023/10/01 02:37:10;;;;;;;15.37;12.70;;;17.90;88.10;;;;;;5039745;28;20255;-61
2023/10/01 02:39:37;;;;;;;15.37;13.47;;;17.90;88.00;;;;;;5039154;28;20530;-62
2023/10/01 02:44:38;;;;;;;17.83;14.97;;;17.90;87.70;;;;;;5041615;28;20198;-61
2023/10/01 02:47:16;;;;;;;15.93;14.10;;;17.80;88.20;;;;;;5046772;28;20239;-61
2023/10/01 02:49:52;;;;;;;16.43;13.47;;;17.80;87.60;;;;;;5046173;28;20208;-61
2023/10/01 02:52:26;;;;;;;19.40;14.43;;;17.80;87.80;;;;;;5035685;28;20205;-62
2023/10/01 02:54:54;;;;;;;15.27;13.70;;;17.80;88.00;;;;;;5035631;28;20288;-62
2023/10/01 02:57:26;;;;;;;17.37;14.17;;;17.70;88.00;;;;;;5036408;28;20260;-61
2023/10/01 03:02:53;;;;;;;21.07;14.20;;;17.70;88.30;;;;;;5038155;28;20227;-62
2023/10/01 03:05:28;;;;;;;15.57;13.20;;;17.70;88.30;;;;;;5046296;28;20201;-62
2023/10/01 03:08:04;;;;;;;15.03;13.50;;;17.70;88.40;;;;;;5041900;28;20205;-62
2023/10/01 03:10:38;;;;;;;15.90;14.30;;;17.70;88.50;;;;;;5040542;28;20292;-62
2023/10/01 03:13:14;;;;;;;20.37;14.30;;;17.70;88.60;;;;;;5042584;28;20206;-62
2023/10/01 03:15:44;;;;;;;21.90;13.57;;;17.60;88.60;;;;;;5037956;28;20214;-62
2023/10/01 03:31:24;;;;;;;14.53;13.03;;;17.50;89.00;;;;;;5036249;28;20275;-62
2023/10/01 03:33:53;;;;;;;16.50;14.70;;;17.50;89.10;;;;;;5036558;28;20204;-62
2023/10/01 03:36:26;;;;;;;18.23;14.33;;;17.40;89.10;;;;;;5037019;28;20219;-62
2023/10/01 03:39:24;;;;;;;15.73;13.67;;;17.40;89.20;;;;;;5031789;28;20211;-62
2023/10/01 03:47:19;;;;;;;19.60;14.23;;;17.30;89.40;;;;;;5038391;28;20191;-62
2023/10/01 03:49:46;;;;;;;19.13;16.37;;;17.30;89.50;;;;;;5040976;28;20208;-62
2023/10/01 03:52:20;;;;;;;17.67;13.80;;;17.30;90.00;;;;;;5038722;28;20201;-62
2023/10/01 03:57:25;;;;;;;14.87;13.27;;;17.30;89.40;;;;;;5038004;28;20212;-62
2023/10/01 03:59:52;;;;;;;16.23;12.83;;;17.30;89.30;;;;;;5041525;28;20637;-62
2023/10/01 04:02:27;;;;;;;16.50;12.87;;;17.30;89.20;;;;;;5037000;28;20221;-61
2023/10/01 04:04:57;;;;;;;16.30;13.37;;;17.30;89.00;;;;;;5039475;28;20203;-61
2023/10/01 04:08:06;;;;;;;15.03;12.50;;;17.30;88.90;;;;;;5040531;28;20525;-61
2023/10/01 04:13:11;;;;;;;13.67;12.07;;;17.20;88.50;;;;;;5041080;28;20631;-61
2023/10/01 04:15:41;;;;;;;13.20;10.90;;;17.20;88.40;;;;;;5040964;28;20297;-62
2023/10/01 04:18:09;;;;;;;13.27;10.97;;;17.20;88.30;;;;;;5036704;28;20227;-62
2023/10/01 04:20:36;;;;;;;13.77;11.20;;;17.20;88.20;;;;;;5035791;28;20207;-62
2023/10/01 04:23:06;;;;;;;14.73;11.33;;;17.20;88.10;;;;;;5035691;28;20218;-61
2023/10/01 04:25:38;;;;;;;15.03;11.13;;;17.10;87.90;;;;;;5039022;28;20195;-62
2023/10/01 04:28:10;;;;;;;14.53;11.10;;;17.10;87.80;;;;;;5034059;28;20203;-62
2023/10/01 04:30:38;;;;;;;12.50;10.93;;;17.10;87.80;;;;;;5041872;28;20204;-62
2023/10/01 04:33:17;;;;;;;14.83;12.33;;;17.00;87.90;;;;;;5037030;28;20218;-62
2023/10/01 04:35:52;;;;;;;13.97;12.10;;;17.00;87.90;;;;;;5037665;28;20271;-62
2023/10/01 04:38:23;;;;;;;19.77;12.77;;;17.00;87.90;;;;;;5037840;28;20224;-62
2023/10/01 04:40:54;;;;;;;13.93;11.83;;;17.00;87.90;;;;;;5035818;28;20196;-62
2023/10/01 04:43:21;;;;;;;15.80;11.63;;;16.90;87.90;;;;;;5038385;28;20222;-62
2023/10/01 04:45:52;;;;;;;13.37;11.73;;;16.90;88.10;;;;;;5041292;28;20200;-62
2023/10/01 04:48:22;;;;;;;18.40;12.50;;;16.90;88.30;;;;;;5041506;28;20195;-62
2023/10/01 04:50:54;;;;;;;15.47;13.87;;;16.90;88.40;;;;;;5034160;28;20203;-61
2023/10/01 04:53:22;;;;;;;17.83;13.33;;;16.80;88.40;;;;;;5033753;28;20225;-62
2023/10/01 04:56:06;;;;;;;18.87;14.83;;;16.80;88.60;;;;;;5040345;28;20566;-61
2023/10/01 04:58:38;;;;;;;17.83;14.43;;;16.80;88.60;;;;;;5038166;28;20593;-61
2023/10/01 05:01:07;;;;;;;16.30;13.60;;;16.80;88.70;;;;;;5038182;28;20254;-62
2023/10/01 05:03:40;;;;;;;15.00;12.97;;;16.80;88.60;;;;;;5031935;28;20306;-62
2023/10/01 05:06:18;;;;;;;15.17;13.00;;;16.80;88.70;;;;;;5041515;28;20231;-62
2023/10/01 05:08:55;;;;;;;15.77;14.13;;;16.80;88.80;;;;;;5036964;28;20525;-62
2023/10/01 05:11:25;;;;;;;16.53;13.93;;;16.80;88.90;;;;;;5033773;28;20718;-62
2023/10/01 05:13:52;;;;;;;17.77;14.03;;;16.80;89.00;;;;;;5036524;28;20282;-62
2023/10/01 05:16:26;;;;;;;17.80;13.23;;;16.70;89.00;;;;;;5040092;28;20252;-62
2023/10/01 05:19:18;;;;;;;17.00;14.37;;;16.70;89.00;;;;;;5043485;28;20205;-62
2023/10/01 05:21:46;;;;;;;17.63;15.07;;;16.70;89.00;;;;;;5047816;28;20210;-62
2023/10/01 05:24:39;;;;;;;18.70;14.10;;;16.70;89.00;;;;;;5035844;28;20619;-62
2023/10/01 05:27:09;;;;;;;17.50;14.40;;;16.70;88.80;;;;;;5034958;28;20692;-62
2023/10/01 05:29:41;;;;;;;19.27;13.27;;;16.70;88.80;;;;;;5039973;28;20248;-62
2023/10/01 05:32:12;;;;;;;18.63;13.60;;;16.70;88.80;;;;;;5042942;28;20200;-62
2023/10/01 05:34:46;;;;;;;17.33;12.93;;;16.70;88.80;;;;;;5046830;28;20206;-62
2023/10/01 05:37:24;;;;;;;14.67;12.57;;;16.70;88.80;;;;;;5039870;28;20232;-62
2023/10/01 05:39:58;;;;;;;13.03;11.67;;;16.80;88.90;;;;;;5048771;28;20198;-62
2023/10/01 05:42:28;;;;;;;14.40;11.03;;;16.70;88.90;;;;;;5046337;28;20212;-62
2023/10/01 05:44:56;;;;;;;12.50;10.67;;;16.80;89.00;;;;;;5048533;28;20191;-62
2023/10/01 05:47:23;;;;;;;11.87;9.53;;;17.00;88.80;;;;;;5037696;28;20631;-62
2023/10/01 05:49:53;;;;;;;11.23;10.13;;;17.10;88.30;;;;;;5046728;28;20207;-62
2023/10/01 05:52:21;;;;;;;12.63;9.83;;;17.30;87.50;;;;;;5039410;28;20199;-61
2023/10/01 05:54:52;;;;;;;11.13;9.17;;;17.40;86.60;;;;;;5034891;28;20204;-61
2023/10/01 05:57:23;;;;;;;11.23;9.77;;;17.40;86.30;;;;;;5047154;28;20208;-62
2023/10/01 05:59:56;;;;;;;9.80;8.80;;;17.40;86.10;;;;;;5048269;28;20232;-62
2023/10/01 06:02:42;;;;;;;16.97;9.17;;;17.40;86.10;;;;;;5040424;28;20545;-62
2023/10/01 06:07:57;;;;;;;10.30;9.17;;;17.40;86.40;;;;;;5041635;28;20193;-67
2023/10/01 06:10:26;;;;;;;12.27;10.93;;;17.40;86.60;;;;;;5040725;28;20208;-66
2023/10/01 06:12:56;;;;;;;13.63;11.70;;;17.50;86.60;;;;;;5037580;28;20215;-65
2023/10/01 06:15:29;;;;;;;16.03;11.73;;;17.60;86.20;;;;;;4989970;28;20610;-65
2023/10/01 06:18:00;;;;;;;14.83;11.87;;;17.70;86.40;;;;;;4985417;28;20661;-66
2023/10/01 06:20:28;;;;;;;16.43;10.90;;;17.80;86.50;;;;;;4984386;28;20213;-65
2023/10/01 06:22:59;;;;;;;13.63;11.43;;;17.80;86.60;;;;;;4980059;28;20216;-65
2023/10/01 06:25:40;;;;;;;11.83;10.40;;;17.90;86.90;;;;;;4979738;28;20239;-64
2023/10/01 06:28:09;;;;;;;12.83;11.40;;;17.90;87.00;;;;;;4983567;28;20198;-65
2023/10/01 06:30:40;;;;;;;15.57;11.97;;;18.00;87.20;;;;;;4985338;28;20660;-67
2023/10/01 06:33:09;;;;;;;16.93;12.53;;;18.10;87.40;;;;;;4984589;28;20620;-66
2023/10/01 06:35:56;;;;;;;16.73;11.30;;;18.10;87.50;;;;;;4979569;28;20229;-65
2023/10/01 06:38:24;;;;;;;12.90;11.53;;;18.20;87.50;;;;;;4981637;28;20242;-67
2023/10/01 06:40:51;;;;;;;15.87;11.30;;;18.30;87.30;;;;;;4980474;28;20262;-65
2023/10/01 06:43:20;;;;;;;11.67;10.33;;;18.30;87.00;;;;;;4982432;28;20211;-66
2023/10/01 06:45:49;;;;;;;12.77;11.47;;;18.40;87.00;;;;;;4981683;28;20220;-65
2023/10/01 06:48:24;;;;;;;15.30;10.40;;;18.50;87.00;;;;;;4982936;28;20217;-66
2023/10/01 06:50:53;;;;;;;17.57;10.67;;;18.60;86.90;;;;;;4978567;28;20519;-65
2023/10/01 06:53:43;;;;;;;12.63;10.47;;;18.60;86.80;;;;;;4982574;28;20204;-64
2023/10/01 06:56:09;;;;;;;12.57;10.80;;;18.70;86.60;;;;;;4981873;28;20686;-65
2023/10/01 06:58:36;;;;;;;12.53;10.27;;;18.80;86.20;;;;;;4979606;28;20235;-65
2023/10/01 07:01:05;;;;;;;15.67;11.20;;;18.80;85.80;;;;;;4982458;28;20354;-65
2023/10/01 07:03:32;;;;;;;13.00;10.30;;;18.90;85.40;;;;;;4984527;28;20271;-65
2023/10/01 07:06:02;;;;;;;15.00;12.47;;;19.00;85.10;;;;;;4990391;28;20616;-65
2023/10/01 07:08:43;;;;;;;12.57;11.37;;;19.10;84.90;;;;;;4979356;28;20254;-66
2023/10/01 07:11:17;;;;;;;17.43;13.20;;;19.10;84.80;;;;;;4980017;28;20257;-65
2023/10/01 07:13:48;;;;;;;15.53;13.83;;;19.20;84.70;;;;;;4979571;28;20219;-66
2023/10/01 07:16:35;;;;;;;15.07;13.33;;;19.30;84.70;;;;;;4983958;28;20219;-65
2023/10/01 07:19:04;;;;;;;21.27;14.50;;;19.40;84.60;;;;;;4999199;28;20209;-65
2023/10/01 07:21:35;;;;;;;18.73;14.80;;;19.50;84.60;;;;;;4983187;28;20212;-65
2023/10/01 07:24:04;;;;;;;15.73;13.83;;;19.60;84.40;;;;;;4981070;28;20219;-65
2023/10/01 07:26:33;;;;;;;16.33;13.90;;;19.70;84.10;;;;;;4973355;28;20646;-65
2023/10/01 07:29:01;;;;;;;16.80;13.40;;;19.90;84.00;;;;;;4978582;28;20228;-65
2023/10/01 07:31:35;;;;;;;17.30;14.20;;;20.00;83.80;;;;;;4978542;28;20215;-66
2023/10/01 07:34:12;;;;;;;18.13;14.70;;;20.20;83.60;;;;;;4997059;28;20262;-65
2023/10/01 07:36:43;;;;;;;17.47;15.60;;;20.40;83.30;;;;;;4979045;28;20231;-65
2023/10/01 07:39:15;;;;;;;20.57;18.30;;;20.60;82.90;;;;;;4974829;28;20200;-66
2023/10/01 07:41:44;;;;;;;19.37;17.03;;;20.80;82.40;;;;;;4979544;28;20206;-65
2023/10/01 07:44:12;;;;;;;19.00;16.33;;;20.90;81.50;;;;;;4976432;28;20229;-66
2023/10/01 07:46:40;;;;;;;17.30;15.27;;;21.10;80.80;;;;;;4981507;28;20263;-65
2023/10/01 07:49:11;;;;;;;19.63;16.33;;;21.30;80.20;;;;;;4995277;28;20202;-65
2023/10/01 07:51:39;;;;;;;17.67;15.97;;;21.50;79.70;;;;;;4986114;28;20342;-64
2023/10/01 07:54:10;;;;;;;20.33;16.23;;;21.60;78.80;;;;;;4982598;28;20302;-65
2023/10/01 07:56:39;;;;;;;21.03;16.90;;;21.80;78.10;;;;;;4991382;28;20189;-65
2023/10/01 08:02:07;;;;;;;20.43;18.30;;;22.20;77.00;;;;;;4982615;28;20208;-65
2023/10/01 08:07:15;;;;;;;20.90;17.33;;;22.60;76.00;;;;;;4984272;28;20538;-64
2023/10/01 08:09:51;;;;;;;23.43;18.63;;;22.80;75.30;;;;;;4987253;28;20215;-65
2023/10/01 08:17:54;;;;;;;19.07;16.97;;;23.30;73.20;;;;;;4979434;28;20200;-65
2023/10/01 08:20:22;;;;;;;21.73;18.40;;;23.50;72.80;;;;;;4978525;28;20209;-65
2023/10/01 08:25:43;;;;;;;28.63;18.37;;;23.90;71.70;;;;;;4986381;28;20502;-64
2023/10/01 08:30:43;;;;;;;26.20;18.73;;;24.20;69.90;;;;;;4985147;28;20235;-65
2023/10/01 08:33:22;;;;;;;20.40;17.77;;;24.30;69.10;;;;;;4987918;28;20283;-65
2023/10/01 08:36:05;;;;;;;23.30;17.80;;;24.40;68.90;;;;;;4982055;28;20200;-65
2023/10/01 08:38:36;;;;;;;28.20;18.80;;;24.50;68.60;;;;;;4979747;28;20201;-65
2023/10/01 08:41:05;;;;;;;26.60;18.40;;;24.70;68.30;;;;;;4977571;28;20644;-65
2023/10/01 08:43:36;;;;;;;27.47;19.73;;;24.80;67.80;;;;;;4978070;28;20228;-65
2023/10/01 08:46:16;;;;;;;23.30;18.27;;;25.00;66.90;;;;;;4976545;28;20202;-63
2023/10/01 08:48:44;;;;;;;36.87;19.83;;;25.10;66.80;;;;;;4977647;28;20201;-62
2023/10/01 08:51:12;;;;;;;19.80;17.70;;;25.20;66.40;;;;;;4974214;28;20260;-62
2023/10/01 08:53:42;;;;;;;23.37;18.10;;;25.40;65.90;;;;;;4983251;28;20213;-63
2023/10/01 16:38:34;;;;;;;4.77;3.50;;;26.20;51.80;;;;;;4955982;28;20241;-65
2023/10/01 16:41:04;;;;;;;8.67;3.40;;;26.10;52.00;;;;;;4955983;28;20439;-65
2023/10/01 16:43:39;;;;;;;7.37;4.27;;;25.90;52.30;;;;;;4959937;28;20218;-65
2023/10/01 16:46:14;;;;;;;7.53;3.73;;;25.90;52.80;;;;;;4963497;28;20904;-65
2023/10/01 16:48:44;;;;;;;14.70;4.20;;;25.90;53.40;;;;;;4958853;28;20648;-67
2023/10/01 16:53:51;;;;;;;8.37;4.10;;;25.70;54.50;;;;;;4960290;28;20193;-64
2023/10/01 16:56:22;;;;;;;7.17;3.60;;;25.60;54.90;;;;;;4960354;28;20203;-65
2023/10/01 16:58:54;;;;;;;6.20;3.83;;;25.50;55.40;;;;;;4962665;28;20224;-65
2023/10/01 17:01:26;;;;;;;8.40;4.03;;;25.40;55.70;;;;;;4958849;28;20630;-65
2023/10/01 17:04:20;;;;;;;4.40;3.23;;;25.30;55.70;;;;;;4958460;28;20748;-65
2023/10/01 17:06:51;;;;;;;4.63;3.37;;;25.20;55.70;;;;;;4953236;28;20206;-65
2023/10/01 17:09:26;;;;;;;7.73;3.30;;;25.20;55.70;;;;;;4970172;28;20207;-65
2023/10/01 17:11:54;;;;;;;6.03;3.20;;;25.00;55.60;;;;;;4960688;28;20206;-65
2023/10/01 17:14:22;;;;;;;7.47;3.60;;;25.00;55.60;;;;;;4961190;28;20219;-65
2023/10/01 17:16:49;;;;;;;7.20;3.73;;;24.90;55.70;;;;;;4954182;28;20230;-65
2023/10/01 17:19:28;;;;;;;7.87;3.87;;;24.90;56.00;;;;;;4953924;28;20224;-65
2023/10/01 17:21:57;;;;;;;7.43;4.03;;;24.80;56.10;;;;;;4954407;28;20641;-65
2023/10/01 17:24:26;;;;;;;5.73;3.40;;;24.70;56.20;;;;;;4953529;28;20632;-65
2023/10/01 17:27:01;;;;;;;5.80;4.13;;;24.70;56.70;;;;;;4963820;28;20194;-65
2023/10/01 17:29:29;;;;;;;7.00;3.97;;;24.60;57.80;;;;;;4968165;28;20204;-65
2023/10/01 17:32:06;;;;;;;4.97;3.90;;;24.50;59.20;;;;;;4959788;28;20296;-65
2023/10/01 17:34:35;;;;;;;5.77;3.70;;;24.40;58.90;;;;;;4960065;28;20522;-65
2023/10/01 17:37:07;;;;;;;6.77;3.53;;;24.30;58.70;;;;;;4970494;28;20232;-65
2023/10/01 17:39:38;;;;;;;4.20;3.77;;;24.30;58.90;;;;;;4978443;28;20193;-68
2023/10/01 17:42:07;;;;;;;4.83;3.67;;;24.20;59.20;;;;;;4984707;28;20209;-65
2023/10/01 17:44:43;;;;;;;6.63;3.97;;;24.10;59.90;;;;;;4981688;28;20660;-65
2023/10/01 17:47:12;;;;;;;7.30;4.20;;;24.00;60.30;;;;;;4982990;28;20197;-65
2023/10/01 17:49:48;;;;;;;10.97;4.43;;;23.90;60.40;;;;;;4979995;28;20224;-65
2023/10/01 17:52:25;;;;;;;6.13;3.57;;;23.80;60.60;;;;;;4978571;28;20211;-65
2023/10/01 17:55:01;;;;;;;9.90;3.90;;;23.70;60.90;;;;;;4982453;28;20629;-65
2023/10/01 17:57:38;;;;;;;9.80;4.50;;;23.60;61.10;;;;;;4997080;28;20215;-65
2023/10/01 18:00:31;;;;;;;12.47;4.40;;;23.60;61.80;;;;;;4994900;28;20205;-65
2023/10/01 18:03:00;;;;;;;7.43;3.77;;;23.40;62.20;;;;;;5003724;28;20507;-65
2023/10/01 18:05:28;;;;;;;7.07;4.50;;;23.40;63.00;;;;;;4972887;28;20231;-64
2023/10/01 18:08:03;;;;;;;9.70;4.50;;;23.30;63.40;;;;;;4979513;28;20224;-64
2023/10/01 18:10:36;;;;;;;5.70;4.37;;;23.20;63.80;;;;;;4973208;28;20200;-64
2023/10/01 18:13:22;;;;;;;9.10;4.30;;;23.20;64.30;;;;;;4978143;28;20648;-64
2023/10/01 18:15:54;;;;;;;17.73;5.63;;;23.10;64.60;;;;;;4984903;28;20229;-64
2023/10/01 18:18:26;;;;;;;7.33;4.30;;;23.00;65.10;;;;;;4983892;28;20205;-64
2023/10/01 18:20:58;;;;;;;11.47;4.53;;;22.90;65.40;;;;;;4982597;28;20255;-64
2023/10/01 18:23:26;;;;;;;9.23;4.57;;;22.90;65.70;;;;;;4977928;28;20283;-65
2023/10/01 18:25:54;;;;;;;4.73;4.10;;;22.80;65.90;;;;;;4979610;28;20557;-64
2023/10/01 18:28:28;;;;;;;8.27;4.53;;;22.70;65.70;;;;;;4978955;28;20204;-65
2023/10/01 18:30:56;;;;;;;10.37;4.20;;;22.70;65.60;;;;;;4981302;28;20216;-64
2023/10/01 18:33:35;;;;;;;14.27;4.50;;;22.60;65.30;;;;;;4982948;28;20205;-64
2023/10/01 18:36:18;;;;;;;6.63;4.60;;;22.60;65.50;;;;;;4984065;28;20220;-65
2023/10/01 18:38:48;;;;;;;6.10;4.07;;;22.50;66.10;;;;;;4979921;28;20205;-65
2023/10/01 18:41:20;;;;;;;9.10;4.80;;;22.40;66.40;;;;;;4975153;28;20712;-65
2023/10/01 18:43:48;;;;;;;7.73;4.67;;;22.40;66.10;;;;;;4978536;28;20361;-65
2023/10/01 18:46:15;;;;;;;7.67;4.70;;;22.40;65.80;;;;;;4984113;28;20200;-64
2023/10/01 18:48:43;;;;;;;5.93;4.33;;;22.40;66.00;;;;;;4980112;28;20514;-64
2023/10/01 18:51:12;;;;;;;7.23;4.43;;;22.30;66.50;;;;;;4982080;28;20209;-64
2023/10/01 18:53:42;;;;;;;6.60;4.33;;;22.30;67.20;;;;;;4976007;28;20193;-64
2023/10/01 18:56:10;;;;;;;5.73;4.50;;;22.30;67.60;;;;;;4982959;28;20221;-65
2023/10/01 18:58:39;;;;;;;6.13;4.60;;;22.20;67.80;;;;;;4984196;28;20222;-65
2023/10/01 19:01:07;;;;;;;5.77;4.13;;;22.20;68.20;;;;;;4980839;28;20201;-64
2023/10/01 19:03:36;;;;;;;6.10;4.40;;;22.10;68.50;;;;;;4983341;28;20211;-64
2023/10/01 19:06:03;;;;;;;8.67;4.60;;;22.10;68.90;;;;;;4985520;28;20586;-65
2023/10/01 19:08:33;;;;;;;8.67;4.80;;;22.10;69.20;;;;;;4981485;28;20264;-65
2023/10/01 19:11:01;;;;;;;6.87;4.30;;;22.00;69.40;;;;;;4980599;28;20644;-65
2023/10/01 19:13:33;;;;;;;5.20;4.70;;;22.00;69.70;;;;;;4986334;28;20193;-64
2023/10/01 19:16:02;;;;;;;6.77;4.70;;;21.90;70.00;;;;;;4982777;28;20204;-64
2023/10/01 19:18:30;;;;;;;6.67;4.77;;;21.90;70.20;;;;;;4983386;28;20203;-64
2023/10/01 19:20:58;;;;;;;10.53;5.23;;;21.90;70.40;;;;;;4980084;28;20687;-65
2023/10/01 19:23:33;;;;;;;5.87;4.50;;;21.90;70.50;;;;;;4975886;28;20596;-65
2023/10/01 19:26:04;;;;;;;13.63;5.23;;;21.80;70.40;;;;;;4980294;28;20233;-64
2023/10/01 19:28:33;;;;;;;8.77;4.97;;;21.80;70.60;;;;;;4984857;28;20189;-64
2023/10/01 19:31:09;;;;;;;7.73;5.33;;;21.80;70.80;;;;;;4984210;28;20212;-65
2023/10/01 19:33:43;;;;;;;9.33;5.67;;;21.80;71.00;;;;;;4983758;28;20215;-74
2023/10/01 19:36:11;;;;;;;9.77;5.73;;;21.80;71.30;;;;;;4978283;28;20201;-65
2023/10/01 19:38:39;;;;;;;8.27;5.60;;;21.70;71.40;;;;;;4978600;28;20274;-65
2023/10/01 19:41:07;;;;;;;9.23;5.80;;;21.70;71.70;;;;;;4981603;28;20205;-65
2023/10/01 19:43:37;;;;;;;8.67;5.93;;;21.70;71.90;;;;;;4980998;28;20736;-65
2023/10/01 19:46:06;;;;;;;7.47;5.07;;;21.60;72.10;;;;;;4981566;28;20217;-65
2023/10/01 19:48:37;;;;;;;5.70;5.20;;;21.60;72.30;;;;;;4979216;28;20212;-65
2023/10/01 19:51:06;;;;;;;12.03;5.40;;;21.60;72.50;;;;;;4974791;28;20237;-64
2023/10/01 19:53:34;;;;;;;6.27;4.97;;;21.60;72.70;;;;;;4978489;28;20620;-64
2023/10/01 19:56:07;;;;;;;10.07;6.03;;;21.60;72.80;;;;;;4976543;28;20215;-64
2023/10/01 19:58:47;;;;;;;9.00;5.90;;;21.50;72.70;;;;;;4981547;28;20212;-64
2023/10/01 20:01:17;;;;;;;8.60;5.97;;;21.50;72.90;;;;;;4976354;28;20645;-64
2023/10/01 20:03:45;;;;;;;7.70;6.00;;;21.50;72.90;;;;;;4993339;28;20220;-64
2023/10/01 20:06:22;;;;;;;7.10;5.80;;;21.50;73.10;;;;;;4976326;28;20236;-64
2023/10/01 20:08:55;;;;;;;14.53;6.20;;;21.50;73.30;;;;;;4976002;28;20263;-64
2023/10/01 20:11:33;;;;;;;7.80;6.17;;;21.50;73.50;;;;;;4976950;28;20659;-64
2023/10/01 20:14:02;;;;;;;9.23;5.67;;;21.50;73.60;;;;;;4978312;28;20292;-64
2023/10/01 20:16:38;;;;;;;9.53;6.17;;;21.50;73.60;;;;;;4974106;28;20205;-65
2023/10/01 20:19:07;;;;;;;6.50;5.53;;;21.50;73.70;;;;;;4986886;28;20232;-65
2023/10/01 20:21:35;;;;;;;10.40;6.10;;;21.40;73.70;;;;;;4975564;28;20718;-65
2023/10/01 20:24:05;;;;;;;10.47;6.30;;;21.40;73.80;;;;;;4974425;28;20541;-65
2023/10/01 20:26:34;;;;;;;11.13;6.47;;;21.40;73.80;;;;;;4975275;28;20213;-66
2023/10/01 20:29:01;;;;;;;11.63;7.40;;;21.30;73.90;;;;;;4979509;28;20287;-65
2023/10/01 20:31:28;;;;;;;13.60;7.27;;;21.40;74.10;;;;;;4976195;28;20201;-65
2023/10/01 20:33:55;;;;;;;10.03;7.10;;;21.30;74.10;;;;;;4980202;28;20201;-65
2023/10/01 20:36:28;;;;;;;10.00;7.73;;;21.30;74.30;;;;;;4974579;28;20637;-64
2023/10/01 20:38:57;;;;;;;11.43;7.00;;;21.30;74.40;;;;;;4974691;28;20211;-65
2023/10/01 20:41:24;;;;;;;11.47;7.80;;;21.20;74.40;;;;;;4972351;28;20533;-64
2023/10/01 20:43:55;;;;;;;9.83;7.57;;;21.20;74.40;;;;;;4974810;28;20205;-65
2023/10/01 20:46:24;;;;;;;13.60;7.80;;;21.20;74.60;;;;;;4979031;28;20584;-64
2023/10/01 20:49:02;;;;;;;11.63;7.27;;;21.20;74.80;;;;;;4994964;28;20202;-64
2023/10/01 20:51:29;;;;;;;13.63;7.47;;;21.20;75.50;;;;;;4987615;28;20296;-65
2023/10/01 20:54:00;;;;;;;12.33;7.40;;;21.10;74.90;;;;;;4979893;28;20238;-65
2023/10/01 20:56:32;;;;;;;10.47;7.97;;;21.10;75.30;;;;;;4984935;28;20205;-65
2023/10/01 20:59:33;;;;;;;15.17;7.67;;;21.10;75.50;;;;;;4973940;28;20200;-64
2023/10/01 21:01:57;;;;;;;9.37;7.87;;;21.10;75.70;;;;;;4975702;28;20775;-64
2023/10/01 21:04:31;;;;;;;10.87;7.87;;;21.10;76.00;;;;;;4994658;28;20204;-64
2023/10/01 21:07:06;;;;;;;12.33;7.80;;;21.00;76.30;;;;;;4981047;28;20194;-64
2023/10/01 21:09:37;;;;;;;9.60;8.23;;;21.00;76.60;;;;;;4985722;28;20196;-65
2023/10/01 21:12:20;;;;;;;9.83;7.90;;;21.00;76.80;;;;;;4974293;28;20207;-65
2023/10/01 21:14:53;;;;;;;14.03;8.07;;;20.90;77.10;;;;;;4975381;28;20264;-64
2023/10/01 21:17:29;;;;;;;13.00;8.33;;;20.90;77.30;;;;;;4977310;28;20209;-65
2023/10/01 21:20:13;;;;;;;9.43;7.30;;;20.80;77.50;;;;;;4979816;28;20211;-64
2023/10/01 21:22:42;;;;;;;14.23;8.80;;;20.80;77.70;;;;;;4979202;28;20287;-64
2023/10/01 21:25:22;;;;;;;10.37;8.07;;;20.70;77.90;;;;;;4982844;28;20253;-64
2023/10/01 21:27:56;;;;;;;9.00;8.10;;;20.70;78.10;;;;;;4972452;28;20692;-64
2023/10/01 21:30:26;;;;;;;11.13;8.70;;;20.70;78.30;;;;;;4985119;28;20267;-65
2023/10/01 21:32:56;;;;;;;9.20;8.30;;;20.60;78.50;;;;;;4981882;28;20231;-65
2023/10/01 21:35:24;;;;;;;10.50;8.23;;;20.60;78.70;;;;;;4980064;28;20205;-65